Time;durP1;ratioP1;P1;durP2;ratioP2;P2;SDS_P1;SDS_P2;PMS_P1;PMS_P2;Temp;Humidity;BMP_temperature;BMP_pressure;BME280_temperature;BME280_humidity;BME280_pressure;Samples;Min_cycle;Max_cycle;Signal;HPM_P1;HPM_P2
2021/11/03 00:00:26;;;;;;;24.13;19.13;;;;;;;9.02;67.96;99041.47;5046695;27;101022;-76
2021/11/03 00:02:51;;;;;;;23.35;19.70;;;;;;;9.02;67.91;99047.53;5035052;27;101150;-75
2021/11/03 00:05:17;;;;;;;26.63;19.40;;;;;;;9.10;68.00;99064.63;5030472;27;97186;-76
2021/11/03 00:07:44;;;;;;;25.33;19.50;;;;;;;8.99;68.19;99052.91;5063540;27;97304;-75
2021/11/03 00:10:12;;;;;;;28.45;18.55;;;;;;;8.94;68.47;99060.13;5054878;27;97380;-75
2021/11/03 00:12:37;;;;;;;24.05;18.25;;;;;;;8.77;68.71;99057.47;5043903;27;100868;-75
2021/11/03 00:15:04;;;;;;;23.40;17.23;;;;;;;8.77;68.78;99050.44;5037127;27;96754;-75
2021/11/03 00:17:29;;;;;;;25.65;18.63;;;;;;;8.91;68.83;99069.91;5048089;27;96868;-75
2021/11/03 00:19:55;;;;;;;23.17;18.65;;;;;;;8.77;68.39;99045.22;5045430;27;97961;-75
2021/11/03 00:22:20;;;;;;;23.00;18.25;;;;;;;8.86;68.32;99067.50;5051346;27;97264;-75
2021/11/03 00:24:46;;;;;;;23.77;18.02;;;;;;;8.82;68.94;99058.94;5035566;27;96648;-75
2021/11/03 00:27:12;;;;;;;24.83;17.77;;;;;;;8.92;68.48;99074.22;5050493;27;96990;-75
2021/11/03 00:29:38;;;;;;;25.27;18.70;;;;;;;8.95;68.44;99074.91;5037896;27;101029;-75
2021/11/03 00:32:09;;;;;;;22.83;18.25;;;;;;;8.89;68.37;99071.72;5053982;27;98101;-75
2021/11/03 00:34:34;;;;;;;25.70;18.70;;;;;;;9.01;68.32;99089.47;5035529;27;96822;-77
2021/11/03 00:37:00;;;;;;;22.88;18.25;;;;;;;8.93;67.93;99081.13;5067682;27;97365;-75
2021/11/03 00:39:26;;;;;;;22.70;18.05;;;;;;;8.68;68.37;99084.06;5049763;27;101364;-75
2021/11/03 00:41:53;;;;;;;20.10;16.25;;;;;;;8.66;69.09;99078.88;5053967;27;97574;-75
2021/11/03 00:44:19;;;;;;;20.60;18.05;;;;;;;8.72;69.06;99068.13;5038438;27;96730;-75
2021/11/03 00:46:45;;;;;;;23.50;17.45;;;;;;;8.59;68.40;99061.78;5043393;27;97228;-76
2021/11/03 00:49:11;;;;;;;24.52;17.73;;;;;;;8.57;69.46;99088.00;5044803;27;100949;-75
2021/11/03 00:51:37;;;;;;;24.23;18.25;;;;;;;8.37;70.03;99056.63;5038517;27;101619;-75
2021/11/03 00:54:03;;;;;;;24.10;16.98;;;;;;;8.47;70.06;99085.88;5031716;27;96741;-74
2021/11/03 00:56:29;;;;;;;27.73;18.42;;;;;;;8.41;70.01;99083.50;5040646;27;97140;-76
2021/11/03 00:58:55;;;;;;;23.45;19.08;;;;;;;8.28;70.01;99067.50;5056618;27;101610;-75
2021/11/03 01:01:21;;;;;;;34.35;18.83;;;;;;;8.34;69.76;99083.75;5040487;27;101460;-76
2021/11/03 01:03:47;;;;;;;22.65;18.60;;;;;;;8.28;70.46;99083.19;5055099;27;96745;-75
2021/11/03 01:06:13;;;;;;;23.40;18.50;;;;;;;8.33;69.96;99087.28;5069075;27;97276;-75
2021/11/03 01:08:39;;;;;;;28.00;19.67;;;;;;;8.29;70.14;99087.50;5044387;27;98081;-74
2021/11/03 01:11:05;;;;;;;24.50;19.00;;;;;;;8.21;70.17;99073.94;5039646;27;101417;-78
2021/11/03 01:13:31;;;;;;;29.38;19.35;;;;;;;8.42;69.32;99087.84;5054804;27;97115;-74
2021/11/03 01:15:58;;;;;;;24.77;18.77;;;;;;;8.51;69.07;99092.66;5051087;27;96833;-76
2021/11/03 01:18:29;;;;;;;25.20;19.08;;;;;;;8.51;69.24;99096.13;5055501;27;97988;-75
2021/11/03 01:20:56;;;;;;;25.23;19.73;;;;;;;8.47;69.06;99093.72;5036559;27;101802;-75
2021/11/03 01:23:24;;;;;;;28.98;19.63;;;;;;;8.58;68.91;99089.72;5040807;27;97018;-75
2021/11/03 01:25:51;;;;;;;24.58;19.25;;;;;;;8.27;69.03;99084.13;5023926;27;96874;-75
2021/11/03 01:28:18;;;;;;;25.48;16.98;;;;;;;8.31;69.77;99091.72;5052656;27;98441;-75
2021/11/03 01:30:47;;;;;;;27.88;18.90;;;;;;;8.19;69.62;99083.59;5051571;27;101772;-75
2021/11/03 01:33:17;;;;;;;33.38;18.13;;;;;;;8.04;70.13;99099.03;5031171;27;97312;-76
2021/11/03 01:35:44;;;;;;;26.40;18.85;;;;;;;8.10;69.65;99101.38;5028518;27;96750;-76
2021/11/03 01:38:09;;;;;;;24.77;17.95;;;;;;;7.95;70.15;99083.75;5052429;27;98078;-75
2021/11/03 01:40:42;;;;;;;28.13;19.23;;;;;;;8.09;70.13;99096.22;5027482;27;101883;-75
2021/11/03 01:43:32;;;;;;;26.80;18.20;;;;;;;8.10;70.11;99088.31;5041140;27;96733;-75
2021/11/03 01:46:26;;;;;;;23.23;18.65;;;;;;;8.14;69.63;99092.50;5057830;27;96785;-75
2021/11/03 01:49:13;;;;;;;22.80;18.60;;;;;;;8.10;69.55;99093.53;5053279;27;101121;-75
2021/11/03 01:51:44;;;;;;;25.85;17.83;;;;;;;7.82;70.28;99090.41;5050428;27;100046;-75
2021/11/03 01:54:13;;;;;;;27.20;19.15;;;;;;;7.91;69.86;99084.78;5036623;27;97253;-76
2021/11/03 01:56:40;;;;;;;21.35;18.38;;;;;;;7.90;69.97;99090.94;5043377;27;97160;-75
2021/11/03 01:59:15;;;;;;;25.65;17.63;;;;;;;7.75;70.00;99089.81;5038788;27;101628;-76
2021/11/03 02:01:41;;;;;;;23.20;17.95;;;;;;;7.71;69.94;99072.59;5024756;27;101548;-75
2021/11/03 02:04:07;;;;;;;24.63;19.30;;;;;;;7.74;69.88;99080.28;5036856;27;96617;-75
2021/11/03 02:06:33;;;;;;;31.80;20.38;;;;;;;7.63;70.07;99072.06;5035519;27;97411;-76
2021/11/03 02:08:59;;;;;;;26.40;18.67;;;;;;;7.45;70.09;99056.22;5026848;27;101062;-75
2021/11/03 02:11:28;;;;;;;23.95;18.90;;;;;;;7.55;70.36;99077.59;5043663;27;100181;-75
2021/11/03 02:13:56;;;;;;;22.75;17.02;;;;;;;7.57;70.31;99083.59;5033034;27;96787;-75
2021/11/03 02:16:22;;;;;;;29.42;19.38;;;;;;;7.47;70.38;99075.28;5043252;27;96707;-76
2021/11/03 02:18:49;;;;;;;29.30;18.75;;;;;;;7.42;70.20;99068.56;5039739;27;101833;-75
2021/11/03 02:21:28;;;;;;;28.63;17.85;;;;;;;7.41;70.52;99075.53;5026577;27;101786;-75
2021/11/03 02:24:03;;;;;;;35.35;20.73;;;;;;;7.36;70.77;99056.63;5039729;27;96742;-75
2021/11/03 02:26:37;;;;;;;56.53;23.80;;;;;;;7.44;70.73;99072.78;5053666;27;96853;-75
2021/11/03 02:29:07;;;;;;;56.25;21.73;;;;;;;7.47;70.40;99075.28;5050543;27;101170;-75
2021/11/03 02:31:46;;;;;;;60.05;20.20;;;;;;;7.35;70.71;99067.09;5050539;27;101773;-76
2021/11/03 02:34:21;;;;;;;33.10;19.77;;;;;;;7.28;70.92;99050.00;5049837;27;96741;-75
2021/11/03 02:37:03;;;;;;;43.90;22.23;;;;;;;7.36;70.43;99064.44;5042552;27;96790;-75
2021/11/03 02:39:42;;;;;;;29.88;19.63;;;;;;;7.34;70.79;99065.41;5048507;27;101766;-75
2021/11/03 02:42:08;;;;;;;37.15;20.13;;;;;;;7.39;70.75;99060.88;5040420;27;101353;-75
2021/11/03 02:44:37;;;;;;;34.05;18.60;;;;;;;7.37;70.50;99068.75;5047063;27;96732;-75
2021/11/03 02:47:05;;;;;;;33.63;19.40;;;;;;;7.36;70.38;99069.66;5038132;27;97875;-75
2021/11/03 02:49:31;;;;;;;30.05;18.45;;;;;;;7.33;70.43;99066.31;5065135;27;98132;-75
2021/11/03 02:51:57;;;;;;;30.98;20.00;;;;;;;7.31;70.40;99063.78;5047766;27;99979;-75
2021/11/03 02:54:23;;;;;;;27.35;19.58;;;;;;;7.18;70.53;99060.78;5051696;27;97061;-75
2021/11/03 02:56:57;;;;;;;28.90;19.23;;;;;;;7.13;70.38;99048.88;5035401;27;97647;-80
2021/11/03 02:59:26;;;;;;;23.75;18.83;;;;;;;7.07;70.55;99051.69;5030873;27;101097;-75
2021/11/03 03:01:55;;;;;;;21.98;18.48;;;;;;;7.03;70.30;99046.59;5036806;27;101832;-75
2021/11/03 03:04:30;;;;;;;27.58;17.17;;;;;;;6.97;70.79;99065.09;5043158;27;96825;-76
2021/11/03 03:06:57;;;;;;;19.67;17.35;;;;;;;7.11;70.79;99082.00;5072124;27;97305;-75
2021/11/03 03:09:24;;;;;;;25.00;18.05;;;;;;;7.01;70.80;99066.72;5052588;27;98025;-75
2021/11/03 03:11:54;;;;;;;26.73;18.70;;;;;;;6.99;71.01;99070.28;5050077;27;101311;-78
2021/11/03 03:14:22;;;;;;;23.30;19.17;;;;;;;7.10;70.54;99070.72;5051789;27;97024;-78
2021/11/03 03:16:48;;;;;;;22.92;17.95;;;;;;;7.06;70.78;99076.09;5052119;27;96840;-75
2021/11/03 03:19:15;;;;;;;20.27;17.77;;;;;;;6.85;70.85;99057.75;5052705;27;101707;-75
2021/11/03 03:21:42;;;;;;;22.40;18.10;;;;;;;6.94;70.81;99070.44;5026071;27;101442;-75
2021/11/03 03:24:09;;;;;;;26.30;18.88;;;;;;;6.99;70.67;99086.78;5039018;27;96831;-74
2021/11/03 03:26:37;;;;;;;22.00;18.17;;;;;;;6.97;70.16;99080.75;5040009;27;96934;-75
2021/11/03 03:29:04;;;;;;;20.58;18.05;;;;;;;7.05;70.31;99085.69;5056753;27;98537;-75
2021/11/03 03:31:31;;;;;;;23.40;18.92;;;;;;;6.94;70.23;99093.94;5042382;27;101464;-75
2021/11/03 03:33:59;;;;;;;20.73;18.52;;;;;;;6.88;70.99;99088.94;5027065;27;96616;-75
2021/11/03 03:36:26;;;;;;;24.63;17.83;;;;;;;6.93;70.48;99094.00;5036034;27;97133;-75
2021/11/03 03:38:53;;;;;;;24.65;19.77;;;;;;;6.92;70.33;99085.34;5034968;27;101657;-75
2021/11/03 03:41:20;;;;;;;23.38;20.23;;;;;;;6.93;70.33;99107.91;5051169;27;101162;-75
2021/11/03 03:43:46;;;;;;;24.52;20.08;;;;;;;6.93;70.02;99107.91;5051799;27;96719;-75
2021/11/03 03:46:13;;;;;;;26.67;19.50;;;;;;;6.91;70.40;99108.84;5051693;27;96851;-75
2021/11/03 03:48:39;;;;;;;27.55;20.13;;;;;;;6.92;70.36;99120.97;5039948;27;100955;-75
2021/11/03 03:51:06;;;;;;;31.60;20.23;;;;;;;6.83;70.26;99129.16;5027149;27;101414;-75
2021/11/03 03:53:31;;;;;;;29.87;20.57;;;;;;;6.67;70.77;99124.53;5045047;27;96674;-74
2021/11/03 03:55:57;;;;;;;28.02;19.75;;;;;;;6.69;70.99;99133.16;5038512;27;97049;-77
2021/11/03 03:58:23;;;;;;;27.90;21.25;;;;;;;6.74;70.62;99120.75;5038382;27;101166;-77
2021/11/03 04:00:50;;;;;;;27.20;20.08;;;;;;;6.74;70.80;99133.81;5072232;27;97558;-76
2021/11/03 04:03:17;;;;;;;23.73;19.90;;;;;;;6.74;70.64;99133.81;5055797;27;97214;-77
2021/11/03 04:05:44;;;;;;;28.05;20.15;;;;;;;6.79;70.00;99134.50;5056689;27;96831;-77
2021/11/03 04:08:13;;;;;;;23.90;17.58;;;;;;;6.71;69.65;99120.88;5028732;27;100858;-77
2021/11/03 04:10:39;;;;;;;25.02;19.70;;;;;;;6.71;70.09;99133.06;5051773;27;97885;-77
2021/11/03 04:13:05;;;;;;;23.48;18.70;;;;;;;6.45;70.69;99107.97;5026719;27;97313;-77
2021/11/03 04:15:33;;;;;;;23.77;18.80;;;;;;;6.57;70.62;99118.81;5056245;27;96923;-77
2021/11/03 04:17:58;;;;;;;25.42;20.38;;;;;;;6.63;70.93;99133.34;5036437;27;101670;-77
2021/11/03 04:20:24;;;;;;;27.00;20.63;;;;;;;6.50;70.97;99132.97;5063727;27;101005;-76
2021/11/03 04:22:50;;;;;;;29.47;20.93;;;;;;;6.49;71.29;99133.03;5049842;27;97075;-78
2021/11/03 04:25:16;;;;;;;25.40;19.50;;;;;;;6.31;70.90;99111.94;5044159;27;96977;-78
2021/11/03 04:27:43;;;;;;;20.73;18.33;;;;;;;6.33;70.97;99104.03;5054088;27;101324;-76
2021/11/03 04:30:11;;;;;;;30.53;21.13;;;;;;;6.34;70.90;99108.34;5037313;27;101344;-77
2021/11/03 04:32:37;;;;;;;29.63;20.13;;;;;;;6.45;70.61;99126.22;5038073;27;97013;-77
2021/11/03 04:35:05;;;;;;;23.23;18.87;;;;;;;6.52;70.44;99132.91;5040078;27;98591;-77
2021/11/03 04:37:31;;;;;;;25.40;18.70;;;;;;;6.53;69.97;99132.84;5047482;27;101669;-77
2021/11/03 04:39:57;;;;;;;25.87;19.47;;;;;;;6.47;69.99;99130.47;5053979;27;101418;-77
2021/11/03 04:42:23;;;;;;;27.87;21.30;;;;;;;6.42;69.91;99126.31;5021121;27;96959;-76
2021/11/03 04:44:48;;;;;;;29.07;19.97;;;;;;;6.33;70.34;99111.88;5051865;27;96863;-77
2021/11/03 04:47:14;;;;;;;24.43;20.27;;;;;;;6.37;70.73;99125.63;5046390;27;101297;-76
2021/11/03 04:49:41;;;;;;;27.48;19.20;;;;;;;6.19;71.17;99132.34;5046997;27;101535;-76
2021/11/03 04:52:06;;;;;;;26.37;20.10;;;;;;;6.10;71.59;99131.75;5040425;27;97006;-77
2021/11/03 04:54:32;;;;;;;27.93;19.20;;;;;;;6.22;71.67;99142.66;5050158;27;97927;-76
2021/11/03 04:56:57;;;;;;;23.30;19.70;;;;;;;6.13;71.56;99130.81;5059340;27;97356;-76
2021/11/03 04:59:23;;;;;;;24.25;16.75;;;;;;;6.27;71.15;99132.94;5050836;27;101258;-78
2021/11/03 05:01:51;;;;;;;23.50;16.53;;;;;;;6.25;70.83;99127.75;5032182;27;96709;-77
2021/11/03 05:04:17;;;;;;;23.60;16.47;;;;;;;6.17;71.02;99111.56;5066390;27;98555;-77
2021/11/03 05:06:48;;;;;;;23.77;17.70;;;;;;;6.30;71.26;99141.47;5050112;27;101322;-75
2021/11/03 05:09:15;;;;;;;28.50;17.97;;;;;;;6.21;70.46;99125.34;5053270;27;100474;-74
2021/11/03 05:11:41;;;;;;;31.67;19.27;;;;;;;6.25;70.58;99145.16;5054523;27;96749;-75
2021/11/03 05:14:07;;;;;;;33.13;18.83;;;;;;;6.11;71.01;99136.09;5040520;27;97733;-77
2021/11/03 05:16:38;;;;;;;35.40;19.73;;;;;;;6.05;70.58;99119.78;5045461;27;100794;-78
2021/11/03 05:19:03;;;;;;;32.47;18.40;;;;;;;6.32;71.29;99144.06;5051948;27;101277;-74
2021/11/03 05:21:37;;;;;;;23.83;17.85;;;;;;;6.22;70.96;99153.94;5049857;27;97217;-75
2021/11/03 05:24:05;;;;;;;26.23;17.95;;;;;;;6.22;70.90;99156.53;5071739;27;97212;-74
2021/11/03 05:26:30;;;;;;;26.57;17.67;;;;;;;6.18;71.02;99148.91;5035614;27;100829;-75
2021/11/03 05:28:58;;;;;;;30.13;17.98;;;;;;;6.11;70.50;99146.50;5037407;27;101083;-74
2021/11/03 05:31:23;;;;;;;27.87;21.13;;;;;;;6.13;70.58;99162.06;5064303;27;98440;-75
2021/11/03 05:33:49;;;;;;;29.33;22.10;;;;;;;6.03;70.60;99143.31;5056719;27;96883;-75
2021/11/03 05:36:20;;;;;;;35.10;24.87;;;;;;;6.02;70.63;99139.00;5049594;27;101443;-76
2021/11/03 05:38:45;;;;;;;39.50;23.80;;;;;;;6.24;70.44;99152.13;5078006;27;101280;-75
2021/11/03 05:41:11;;;;;;;28.48;20.48;;;;;;;6.34;71.13;99140.50;5039969;27;97062;-75
2021/11/03 05:43:37;;;;;;;23.20;18.67;;;;;;;6.62;71.33;99157.75;5034925;27;96975;-77
2021/11/03 05:46:02;;;;;;;35.10;19.57;;;;;;;6.44;71.63;99148.81;5042795;27;97884;-75
2021/11/03 05:48:30;;;;;;;33.57;19.80;;;;;;;6.39;71.56;99157.72;5073855;27;97838;-78
2021/11/03 05:50:57;;;;;;;26.23;19.10;;;;;;;6.40;71.60;99159.41;5056456;27;97171;-78
2021/11/03 05:53:22;;;;;;;30.37;19.67;;;;;;;6.35;71.96;99150.00;5066049;27;96950;-77
2021/11/03 05:55:48;;;;;;;28.57;17.37;;;;;;;6.45;72.24;99158.34;5051071;27;98564;-80
2021/11/03 05:58:13;;;;;;;27.03;19.80;;;;;;;6.43;71.28;99152.34;5052793;27;97597;-79
2021/11/03 06:00:39;;;;;;;32.93;20.13;;;;;;;6.33;71.44;99164.84;5056735;27;97083;-80
2021/11/03 06:03:05;;;;;;;35.33;21.03;;;;;;;6.31;71.55;99169.28;5045902;27;97286;-80
2021/11/03 06:05:31;;;;;;;35.33;20.77;;;;;;;6.42;71.30;99173.25;5052897;27;101181;-82
2021/11/03 06:07:58;;;;;;;22.23;17.90;;;;;;;6.46;71.54;99183.53;5065937;27;100630;-87
2021/11/03 06:10:28;;;;;;;36.47;19.57;;;;;;;6.40;71.25;99181.13;5040563;27;96709;-86
2021/11/03 06:12:55;;;;;;;23.92;18.35;;;;;;;6.49;71.45;99193.84;5027998;27;97782;-91
2021/11/03 06:15:22;;;;;;;24.93;16.63;;;;;;;6.54;70.64;99175.41;5051565;27;100692;-89
2021/11/03 06:17:51;;;;;;;24.20;18.23;;;;;;;6.52;71.08;99191.13;5066085;27;97897;-86
2021/11/03 06:20:17;;;;;;;28.15;18.67;;;;;;;6.47;70.99;99192.19;5046611;27;96645;-83
2021/11/03 06:22:43;;;;;;;25.53;19.00;;;;;;;6.55;71.36;99200.59;5056720;27;97041;-84
2021/11/03 06:25:12;;;;;;;31.87;19.50;;;;;;;6.55;71.62;99201.44;5044633;27;101297;-83
2021/11/03 06:27:37;;;;;;;28.73;17.17;;;;;;;6.68;70.69;99188.81;5022981;28;98380;-85
2021/11/03 06:30:06;;;;;;;18.53;15.50;;;;;;;6.84;70.46;99198.72;4999845;28;97120;-84
2021/11/03 06:32:31;;;;;;;20.98;15.95;;;;;;;6.84;70.24;99191.72;5032868;28;97168;-85
2021/11/03 06:34:57;;;;;;;27.70;19.93;;;;;;;6.62;70.61;99181.19;5011096;28;101570;-86
2021/11/03 06:37:24;;;;;;;38.17;20.87;;;;;;;6.73;70.93;99188.66;5010523;28;101713;-82
2021/11/03 06:39:49;;;;;;;36.40;21.73;;;;;;;6.76;71.02;99205.03;5000360;28;96692;-84
2021/11/03 06:42:15;;;;;;;35.73;20.93;;;;;;;6.83;70.74;99210.88;5015704;28;97166;-84
2021/11/03 06:44:40;;;;;;;30.02;21.02;;;;;;;6.87;71.22;99206.41;5016088;28;99700;-84
2021/11/03 06:47:06;;;;;;;28.03;20.20;;;;;;;6.92;70.61;99201.84;5031458;28;101547;-84
2021/11/03 06:49:31;;;;;;;24.40;19.05;;;;;;;7.00;70.59;99205.88;5033361;28;97276;-85
2021/11/03 06:51:57;;;;;;;25.63;19.03;;;;;;;7.05;70.66;99208.34;5015685;28;96899;-84
2021/11/03 06:54:23;;;;;;;23.98;17.77;;;;;;;7.16;69.98;99200.13;5016258;28;100824;-84
2021/11/03 06:56:51;;;;;;;29.98;18.77;;;;;;;7.68;69.75;99205.94;4989074;28;100490;-85
2021/11/03 06:59:16;;;;;;;22.27;16.80;;;;;;;9.66;63.55;99205.13;5021664;28;96645;-84
2021/11/03 07:01:42;;;;;;;17.10;15.30;;;;;;;11.16;58.87;99200.09;4999809;28;96933;-84
2021/11/03 07:04:09;;;;;;;20.60;15.30;;;;;;;11.78;57.36;99208.09;5014664;28;98017;-85
2021/11/03 07:06:35;;;;;;;15.93;13.80;;;;;;;11.63;57.65;99201.06;5032954;27;98401;-84
2021/11/03 07:09:01;;;;;;;24.42;16.05;;;;;;;11.66;57.42;99212.22;4997952;28;97251;-84
2021/11/03 07:11:28;;;;;;;23.00;15.23;;;;;;;11.83;56.96;99190.25;5032564;28;96827;-84
2021/11/03 07:13:55;;;;;;;20.67;14.30;;;;;;;12.48;55.71;99202.31;5032487;28;98330;-84
2021/11/03 07:16:21;;;;;;;17.50;13.48;;;;;;;12.80;55.19;99195.13;5014438;28;101182;-84
2021/11/03 07:18:47;;;;;;;16.95;12.27;;;;;;;13.37;54.10;99203.03;5020394;28;97065;-84
2021/11/03 07:21:12;;;;;;;17.45;11.48;;;;;;;13.57;53.08;99207.03;5015948;28;97820;-84
2021/11/03 07:23:38;;;;;;;19.48;11.77;;;;;;;13.69;53.25;99205.41;5001493;27;100942;-84
2021/11/03 07:26:04;;;;;;;16.35;10.88;;;;;;;13.89;53.21;99219.94;5025614;27;101062;-84
2021/11/03 07:28:30;;;;;;;12.07;10.00;;;;;;;14.00;52.14;99230.63;5061628;27;97261;-84
2021/11/03 07:30:55;;;;;;;13.45;10.18;;;;;;;14.21;52.13;99228.38;5023876;27;97170;-84
2021/11/03 07:33:22;;;;;;;14.88;10.23;;;;;;;14.32;51.61;99230.31;5024870;27;99575;-83
2021/11/03 07:35:47;;;;;;;13.30;9.73;;;;;;;14.55;50.90;99219.06;5024857;27;100949;-81
2021/11/03 07:38:13;;;;;;;11.07;8.98;;;;;;;14.40;50.79;99220.94;5047590;27;96787;-82
2021/11/03 07:40:44;;;;;;;10.73;9.52;;;;;;;14.67;50.94;99217.41;5040641;27;96672;-82
2021/11/03 07:43:12;;;;;;;12.68;9.45;;;;;;;14.98;49.60;99209.97;5054375;27;98084;-82
2021/11/03 07:45:39;;;;;;;11.15;8.73;;;;;;;15.12;50.13;99233.66;5058835;27;99203;-81
2021/11/03 07:48:05;;;;;;;13.18;9.90;;;;;;;15.30;49.19;99239.44;5026336;27;96769;-80
2021/11/03 07:50:37;;;;;;;14.38;10.15;;;;;;;15.45;48.94;99214.56;5060125;27;96958;-82
2021/11/03 07:53:02;;;;;;;;;;;;;;;15.94;48.21;99252.50;5047768;27;97738;-76
2021/11/03 07:55:28;;;;;;;18.48;9.15;;;;;;;15.95;47.45;99244.47;5062590;27;97569;-77
2021/11/03 07:57:54;;;;;;;15.90;8.68;;;;;;;16.36;46.95;99245.03;5051835;27;97098;-77
2021/11/03 08:00:25;;;;;;;14.82;8.38;;;;;;;16.44;46.43;99226.75;5038649;27;98059;-76
2021/11/03 08:02:50;;;;;;;9.77;7.95;;;;;;;16.89;45.96;99248.06;5042671;27;101053;-76
2021/11/03 08:05:16;;;;;;;7.97;7.13;;;;;;;16.99;44.79;99235.81;5063512;27;97664;-82
2021/11/03 08:07:42;;;;;;;8.52;7.65;;;;;;;16.95;44.97;99234.34;5045269;27;97613;-79
2021/11/03 08:10:13;;;;;;;10.18;9.13;;;;;;;17.12;44.18;99233.88;5045812;27;96899;-79
2021/11/03 08:12:39;;;;;;;12.57;10.70;;;;;;;17.60;43.92;99265.44;5052926;27;100433;-79
2021/11/03 08:15:06;;;;;;;11.23;9.40;;;;;;;18.22;42.66;99255.19;5058046;27;98349;-79
2021/11/03 08:17:32;;;;;;;12.65;9.00;;;;;;;19.47;40.59;99251.66;5070699;27;96937;-76
2021/11/03 08:20:00;;;;;;;9.52;8.55;;;;;;;20.48;39.01;99247.06;5067246;27;96865;-76
2021/11/03 08:22:26;;;;;;;8.77;8.05;;;;;;;21.56;36.30;99230.66;5044179;27;98136;-76
2021/11/03 08:24:53;;;;;;;9.45;8.52;;;;;;;22.18;35.72;99244.19;5054674;27;97538;-76
2021/11/03 08:27:21;;;;;;;7.88;7.00;;;;;;;22.82;34.39;99237.69;5056065;27;96877;-73
2021/11/03 08:29:47;;;;;;;9.48;8.40;;;;;;;23.97;33.47;99249.00;5065550;27;96840;-74
2021/11/03 08:32:16;;;;;;;8.80;8.10;;;;;;;24.19;32.50;99242.16;5043811;27;100847;-74
2021/11/03 08:34:42;;;;;;;9.27;8.48;;;;;;;24.22;32.49;99241.81;5048737;27;97396;-75
2021/11/03 08:37:10;;;;;;;8.73;8.00;;;;;;;23.75;32.86;99242.41;5069154;27;97406;-74
2021/11/03 08:39:38;;;;;;;8.20;7.47;;;;;;;24.82;31.45;99232.63;5045306;27;96942;-74
2021/11/03 08:42:04;;;;;;;8.60;7.90;;;;;;;25.07;31.42;99249.50;5036921;27;100984;-75
2021/11/03 08:44:30;;;;;;;10.38;8.48;;;;;;;25.18;31.40;99245.66;5026707;27;101539;-80
2021/11/03 08:46:56;;;;;;;8.57;7.45;;;;;;;25.14;31.15;99244.34;5046318;27;97289;-80
2021/11/03 08:49:22;;;;;;;9.43;8.38;;;;;;;25.45;31.20;99263.19;5024432;27;97276;-80
2021/11/03 08:51:47;;;;;;;9.55;8.65;;;;;;;25.05;31.42;99238.13;5067731;27;98781;-81
2021/11/03 08:54:13;;;;;;;8.90;8.20;;;;;;;24.99;31.63;99228.09;5057747;27;97406;-82
2021/11/03 08:56:39;;;;;;;8.07;7.38;;;;;;;25.90;31.12;99232.13;5069940;27;96798;-81
2021/11/03 08:59:09;;;;;;;9.05;8.35;;;;;;;25.84;30.24;99247.13;5044440;27;97755;-81
2021/11/03 09:01:37;;;;;;;7.15;6.65;;;;;;;26.36;29.09;99246.44;5054680;27;98170;-82
2021/11/03 09:04:03;;;;;;;7.90;7.28;;;;;;;25.97;29.25;99235.78;5065624;27;97428;-81
2021/11/03 09:06:29;;;;;;;9.30;8.43;;;;;;;25.63;29.91;99234.25;5067067;27;96692;-82
2021/11/03 09:08:54;;;;;;;8.70;7.22;;;;;;;24.59;30.62;99211.88;5041201;27;96907;-82
2021/11/03 09:11:21;;;;;;;9.75;7.75;;;;;;;24.49;31.84;99237.16;5066941;27;97526;-81
2021/11/03 09:13:46;;;;;;;7.90;7.20;;;;;;;25.27;30.43;99223.16;5068374;27;101293;-83
2021/11/03 09:16:12;;;;;;;8.38;7.63;;;;;;;25.96;30.11;99243.00;5055575;27;96953;-83
2021/11/03 09:18:38;;;;;;;9.00;7.55;;;;;;;25.77;29.84;99235.34;5038046;27;97749;-83
2021/11/03 09:21:04;;;;;;;7.88;7.18;;;;;;;25.49;30.21;99230.47;5067193;27;100716;-82
2021/11/03 09:23:30;;;;;;;8.38;7.30;;;;;;;25.30;31.22;99233.53;5070220;27;97255;-83
2021/11/03 09:25:56;;;;;;;8.30;7.50;;;;;;;25.33;31.10;99227.81;5047289;27;96882;-83
2021/11/03 09:28:25;;;;;;;8.43;7.65;;;;;;;25.34;30.86;99226.84;5045393;27;96759;-82
2021/11/03 09:30:55;;;;;;;7.63;6.40;;;;;;;25.28;30.82;99230.22;5050453;27;97883;-81
2021/11/03 09:33:21;;;;;;;9.30;7.70;;;;;;;24.57;31.46;99234.50;5037129;27;99813;-81
2021/11/03 09:35:49;;;;;;;7.35;6.65;;;;;;;23.72;32.83;99227.50;5073126;27;96694;-83
2021/11/03 09:38:18;;;;;;;7.45;6.75;;;;;;;22.83;33.52;99220.66;5071131;27;96747;-74
2021/11/03 09:40:57;;;;;;;10.00;7.72;;;;;;;22.29;34.79;99227.09;5048393;27;98226;-73
2021/11/03 09:43:35;;;;;;;7.50;6.80;;;;;;;21.82;35.11;99222.75;5049916;27;97620;-74
2021/11/03 09:46:03;;;;;;;7.45;6.82;;;;;;;21.21;36.23;99226.00;5056867;27;97047;-73
2021/11/03 09:48:34;;;;;;;8.18;7.45;;;;;;;20.53;36.94;99210.19;5049353;27;96864;-74
2021/11/03 09:51:05;;;;;;;7.40;6.47;;;;;;;19.59;39.13;99229.28;5037289;27;101271;-74
2021/11/03 09:53:47;;;;;;;8.60;6.18;;;;;;;19.90;38.93;99218.59;5054232;27;101243;-74
2021/11/03 09:56:16;;;;;;;6.38;5.60;;;;;;;20.08;38.13;99211.56;5044403;27;96935;-76
2021/11/03 09:59:10;;;;;;;7.00;6.40;;;;;;;19.96;38.53;99215.38;5054056;27;97396;-76
2021/11/03 10:01:44;;;;;;;7.15;6.47;;;;;;;19.66;38.75;99197.66;5049770;27;101328;-74
2021/11/03 10:04:19;;;;;;;7.05;6.00;;;;;;;19.55;39.38;99208.41;5052594;27;101347;-76
2021/11/03 10:06:47;;;;;;;6.55;5.90;;;;;;;19.24;39.30;99213.75;5054401;27;96681;-74
2021/11/03 10:09:13;;;;;;;6.55;5.85;;;;;;;18.72;40.37;99196.97;5050033;27;96856;-74
2021/11/03 10:11:46;;;;;;;6.35;5.82;;;;;;;18.81;40.49;99190.88;5062836;27;98455;-75
2021/11/03 10:14:12;;;;;;;5.63;5.07;;;;;;;18.80;39.47;99185.72;5046404;27;98144;-75
2021/11/03 10:16:41;;;;;;;6.10;5.57;;;;;;;18.45;40.61;99218.75;5060247;27;96747;-75
2021/11/03 10:19:25;;;;;;;5.30;4.90;;;;;;;18.07;41.30;99210.34;5065361;27;96851;-77
2021/11/03 10:21:57;;;;;;;6.38;5.78;;;;;;;18.24;41.99;99210.78;5041529;27;100832;-75
2021/11/03 10:24:34;;;;;;;6.32;5.82;;;;;;;18.04;41.71;99189.34;5045949;27;101392;-75
2021/11/03 10:27:11;;;;;;;6.30;5.70;;;;;;;17.87;42.07;99206.66;5039071;27;97171;-75
2021/11/03 10:29:53;;;;;;;5.60;5.10;;;;;;;17.81;41.88;99199.22;5047937;27;96888;-75
2021/11/03 10:32:27;;;;;;;5.25;4.85;;;;;;;17.34;42.40;99200.38;5037431;27;98147;-75
2021/11/03 10:35:32;;;;;;;5.05;4.57;;;;;;;16.81;42.98;99179.75;5057628;27;97390;-74
2021/11/03 10:38:14;;;;;;;7.30;6.32;;;;;;;16.57;43.85;99197.53;5054813;27;96608;-75
2021/11/03 10:41:03;;;;;;;6.45;5.85;;;;;;;16.44;44.43;99202.91;5036807;27;96702;-75
2021/11/03 10:43:33;;;;;;;5.72;5.13;;;;;;;16.43;44.51;99187.97;5034051;27;101377;-75
2021/11/03 10:46:05;;;;;;;5.43;4.93;;;;;;;16.32;44.57;99172.03;5047646;27;101449;-75
2021/11/03 10:48:31;;;;;;;5.60;5.10;;;;;;;16.14;45.26;99179.56;5053708;27;96730;-76
2021/11/03 10:51:14;;;;;;;5.32;4.82;;;;;;;16.17;45.73;99184.63;5032800;27;96825;-76
2021/11/03 10:53:39;;;;;;;5.35;4.85;;;;;;;15.85;46.30;99182.59;5039207;27;101513;-74
2021/11/03 10:56:17;;;;;;;5.28;4.85;;;;;;;15.74;46.83;99187.84;5064794;27;97834;-74
2021/11/03 10:58:48;;;;;;;5.10;4.70;;;;;;;15.81;46.89;99178.50;5066290;27;96879;-75
2021/11/03 11:01:31;;;;;;;5.25;4.85;;;;;;;15.79;46.63;99183.88;5051983;27;97011;-75
2021/11/03 11:03:59;;;;;;;5.57;4.97;;;;;;;15.57;47.30;99178.47;5057809;27;97997;-75
2021/11/03 11:06:35;;;;;;;6.55;5.00;;;;;;;15.45;47.62;99164.31;5059334;27;98422;-75
2021/11/03 11:09:09;;;;;;;5.60;4.95;;;;;;;15.29;47.81;99176.94;5050090;27;97308;-75
2021/11/03 11:11:37;;;;;;;5.65;4.75;;;;;;;15.03;47.86;99139.16;5040945;27;97265;-75
2021/11/03 11:14:17;;;;;;;5.18;4.68;;;;;;;15.06;47.67;99176.78;5037989;27;100230;-76
2021/11/03 11:17:08;;;;;;;5.22;4.72;;;;;;;14.86;48.38;99174.69;5085087;27;98004;-75
2021/11/03 11:19:57;;;;;;;5.18;4.70;;;;;;;14.67;49.44;99173.34;5059397;27;98407;-75
2021/11/03 11:22:37;;;;;;;5.72;5.03;;;;;;;14.80;49.35;99175.13;5052686;27;98192;-75
2021/11/03 11:25:23;;;;;;;7.30;5.20;;;;;;;14.76;49.51;99174.50;5049031;27;97722;-75
2021/11/03 11:28:18;;;;;;;5.28;4.78;;;;;;;14.38;49.26;99159.47;5037140;27;101421;-75
2021/11/03 11:30:52;;;;;;;6.03;5.43;;;;;;;14.42;49.34;99170.66;5052357;27;96735;-76